createdAt,value
2019-03-15T00:02:58.714Z,5.33
2019-03-15T00:08:02.366Z,4.80
2019-03-15T00:13:06.242Z,5.83
2019-03-15T00:18:10.012Z,4.93
2019-03-15T00:23:14.056Z,5.23
2019-03-15T00:28:17.798Z,4.70
2019-03-15T00:33:21.500Z,4.40
2019-03-15T00:38:25.256Z,5.20
2019-03-15T00:43:29.165Z,4.70
2019-03-15T00:48:32.816Z,4.37
2019-03-15T00:53:36.498Z,4.10
2019-03-15T00:58:40.259Z,5.50
2019-03-15T01:03:43.923Z,5.00
2019-03-15T01:08:47.850Z,4.50
2019-03-15T01:13:51.880Z,4.10
2019-03-15T01:18:55.605Z,4.90
2019-03-15T01:23:59.408Z,3.97
2019-03-15T01:29:03.363Z,5.23
2019-03-15T01:34:07.095Z,4.70
2019-03-15T01:39:10.760Z,5.17
2019-03-15T01:44:14.500Z,4.90
2019-03-15T01:49:18.180Z,5.20
2019-03-15T01:54:22.048Z,4.20
2019-03-15T01:59:25.785Z,4.87
2019-03-15T02:04:29.573Z,4.80
2019-03-15T02:09:33.339Z,4.60
2019-03-15T02:14:37.057Z,4.23
2019-03-15T02:19:41.388Z,4.37
2019-03-15T02:24:45.162Z,4.90
2019-03-15T02:29:49.075Z,4.90
2019-03-15T02:34:53.948Z,4.03
2019-03-15T02:39:57.793Z,4.40
2019-03-15T02:45:01.456Z,4.97
2019-03-15T02:50:05.337Z,4.60
2019-03-15T02:55:09.418Z,4.70
2019-03-15T03:00:13.659Z,5.70
2019-03-15T03:05:18.046Z,4.83
2019-03-15T03:10:21.728Z,4.67
2019-03-15T03:15:25.455Z,4.60
2019-03-15T03:20:29.228Z,4.50
2019-03-15T03:25:32.972Z,3.77
2019-03-15T03:30:36.628Z,4.27
2019-03-15T03:35:40.389Z,3.87
2019-03-15T03:40:44.106Z,4.53
2019-03-15T03:45:47.754Z,4.10
2019-03-15T03:50:51.470Z,4.47
2019-03-15T03:55:55.171Z,4.07
2019-03-15T04:00:59.074Z,3.47
2019-03-15T04:06:02.780Z,3.90
2019-03-15T04:11:06.461Z,3.90
2019-03-15T04:16:10.143Z,3.97
2019-03-15T04:21:13.833Z,3.73
2019-03-15T04:26:17.510Z,3.90
2019-03-15T04:31:21.209Z,3.63
2019-03-15T04:36:24.884Z,4.10
2019-03-15T04:41:28.585Z,3.87
2019-03-15T04:46:32.303Z,3.50
2019-03-15T04:51:36.036Z,4.00
2019-03-15T04:56:40.175Z,4.47
2019-03-15T05:01:43.916Z,3.90
2019-03-15T05:06:47.640Z,3.03
2019-03-15T05:11:51.441Z,3.77
2019-03-15T05:16:55.112Z,4.40
2019-03-15T05:21:58.771Z,4.30
2019-03-15T05:27:02.595Z,6.37
2019-03-15T05:32:06.535Z,7.67
2019-03-15T05:37:10.305Z,7.70
2019-03-15T05:42:13.994Z,8.50
2019-03-15T05:47:17.855Z,9.33
2019-03-15T05:52:21.581Z,11.97
2019-03-15T05:57:25.313Z,16.93
2019-03-15T06:02:28.951Z,16.53
2019-03-15T06:07:32.683Z,18.00
2019-03-15T06:12:36.741Z,17.70
2019-03-15T06:17:40.680Z,16.60
2019-03-15T06:22:44.461Z,14.47
2019-03-15T06:27:48.271Z,12.77
2019-03-15T06:32:52.049Z,12.93
2019-03-15T06:37:55.809Z,11.70
2019-03-15T06:42:59.653Z,12.03
2019-03-15T06:48:03.368Z,11.87
2019-03-15T06:53:07.264Z,13.43
2019-03-15T06:58:11.016Z,15.17
2019-03-15T07:03:14.792Z,13.53
2019-03-15T07:08:18.585Z,13.00
2019-03-15T07:13:22.483Z,12.87
2019-03-15T07:18:26.265Z,11.00
2019-03-15T07:23:30.239Z,9.93
2019-03-15T07:28:34.123Z,9.90
2019-03-15T07:33:37.831Z,9.27
2019-03-15T07:38:41.701Z,8.63
2019-03-15T07:43:45.602Z,7.30
2019-03-15T07:48:49.783Z,7.13
2019-03-15T07:53:53.535Z,7.13
2019-03-15T07:58:57.975Z,7.50
2019-03-15T08:04:21.059Z,6.70
2019-03-15T08:09:25.075Z,8.57
2019-03-15T08:14:28.965Z,7.90
2019-03-15T08:19:33.063Z,6.03
2019-03-15T08:24:36.907Z,5.80
2019-03-15T08:29:43.404Z,5.37
2019-03-15T08:34:47.212Z,6.37
2019-03-15T08:39:51.052Z,6.23
2019-03-15T08:44:54.852Z,6.10
2019-03-15T08:49:58.765Z,5.07
2019-03-15T08:55:05.476Z,5.27
2019-03-15T09:00:09.063Z,4.70
2019-03-15T09:05:12.909Z,4.80
2019-03-15T09:10:23.287Z,4.73
2019-03-15T09:15:22.336Z,5.60
2019-03-15T09:20:30.429Z,6.70
2019-03-15T09:25:31.848Z,5.77
2019-03-15T09:30:36.081Z,5.13
2019-03-15T09:35:39.987Z,5.30
2019-03-15T09:40:43.838Z,5.13
2019-03-15T09:46:06.851Z,4.90
2019-03-15T09:51:10.750Z,5.97
2019-03-15T09:56:14.462Z,5.43
2019-03-15T10:01:34.200Z,5.50
2019-03-15T10:06:23.672Z,5.30
2019-03-15T10:11:27.468Z,5.40
2019-03-15T10:16:31.345Z,4.53
2019-03-15T10:21:35.250Z,5.87
2019-03-15T10:26:39.065Z,5.03
2019-03-15T10:31:42.870Z,4.80
2019-03-15T10:36:46.662Z,5.60
2019-03-15T10:41:50.418Z,5.57
2019-03-15T10:46:54.117Z,5.10
2019-03-15T10:51:57.906Z,5.40
2019-03-15T10:57:01.941Z,5.37
2019-03-15T11:02:05.846Z,4.57
2019-03-15T11:07:09.731Z,5.30
2019-03-15T11:12:13.456Z,4.87
2019-03-15T11:17:17.179Z,5.00
2019-03-15T11:22:20.897Z,4.03
2019-03-15T11:27:24.916Z,4.20
2019-03-15T11:32:28.664Z,4.17
2019-03-15T11:37:32.431Z,4.03
2019-03-15T11:42:36.233Z,3.90
2019-03-15T11:48:01.372Z,4.60
2019-03-15T11:52:45.789Z,5.03
2019-03-15T11:57:49.575Z,5.67
2019-03-15T12:02:53.556Z,4.57
2019-03-15T12:07:57.473Z,4.23
2019-03-15T12:13:01.201Z,4.13
2019-03-15T12:18:08.069Z,4.37
2019-03-15T12:23:10.501Z,4.83
2019-03-15T12:28:14.326Z,4.10
2019-03-15T12:33:18.141Z,3.67
2019-03-15T12:38:22.011Z,3.70
2019-03-15T12:43:25.788Z,3.70
2019-03-15T12:48:29.507Z,3.60
2019-03-15T12:53:42.185Z,3.87
2019-03-15T12:58:45.899Z,3.63
2019-03-15T13:03:51.223Z,4.30
2019-03-15T13:08:55.086Z,3.77
2019-03-15T13:13:58.972Z,4.17
2019-03-15T13:19:02.715Z,3.50
2019-03-15T13:24:06.543Z,3.03
2019-03-15T13:29:10.513Z,3.97
2019-03-15T13:34:14.437Z,3.70
2019-03-15T13:39:18.465Z,3.70
2019-03-15T13:44:26.089Z,4.10
2019-03-15T13:49:27.673Z,3.53
2019-03-15T13:54:31.539Z,3.77
2019-03-15T13:59:35.200Z,3.40
2019-03-15T14:04:38.945Z,3.70
2019-03-15T14:09:42.804Z,4.13
2019-03-15T14:14:46.812Z,3.60
2019-03-15T14:19:50.703Z,3.87
2019-03-15T14:24:55.559Z,3.70
2019-03-15T14:29:59.504Z,3.20
2019-03-15T14:35:22.673Z,3.17
2019-03-15T14:40:26.769Z,3.67
2019-03-15T14:45:30.637Z,4.13
2019-03-15T14:50:34.402Z,3.50
2019-03-15T14:55:38.230Z,3.60
2019-03-15T15:00:43.703Z,3.77
2019-03-15T15:05:47.785Z,3.17
2019-03-15T15:10:51.761Z,3.80
2019-03-15T15:15:55.691Z,3.63
2019-03-15T15:20:59.539Z,4.20
2019-03-15T15:26:03.307Z,4.10
2019-03-15T15:31:07.028Z,4.40
2019-03-15T15:36:10.872Z,5.03
2019-03-15T15:41:14.748Z,6.57
2019-03-15T15:46:18.527Z,8.83
2019-03-15T15:51:22.458Z,9.90
2019-03-15T15:56:26.217Z,9.43
2019-03-15T16:01:30.289Z,10.10
2019-03-15T16:06:34.181Z,9.60
2019-03-15T16:11:38.084Z,8.20
2019-03-15T16:16:42.142Z,8.77
2019-03-15T16:21:45.992Z,9.13
2019-03-15T16:26:52.003Z,9.37
2019-03-15T16:31:55.872Z,8.90
2019-03-15T16:36:59.741Z,9.30
2019-03-15T16:42:03.558Z,10.90
2019-03-15T16:47:07.722Z,10.73
2019-03-15T16:52:12.057Z,10.00
2019-03-15T16:57:16.154Z,8.70
2019-03-15T17:02:19.880Z,9.43
2019-03-15T17:07:23.757Z,8.97
2019-03-15T17:12:27.965Z,8.17
2019-03-15T17:17:31.896Z,8.60
2019-03-15T17:22:35.727Z,7.83
2019-03-15T17:27:39.434Z,7.20
2019-03-15T17:32:43.636Z,7.80
2019-03-15T17:37:47.635Z,7.40
2019-03-15T17:42:51.322Z,7.73
2019-03-15T17:47:55.031Z,7.67
2019-03-15T17:52:58.810Z,7.57
2019-03-15T17:58:02.611Z,7.97
2019-03-15T18:03:20.136Z,8.07
2019-03-15T18:08:12.511Z,8.20
2019-03-15T18:13:16.370Z,7.70
2019-03-15T18:18:20.208Z,7.50
2019-03-15T18:23:23.918Z,8.03
2019-03-15T18:28:27.634Z,8.53
2019-03-15T18:33:31.415Z,7.37
2019-03-15T18:38:35.238Z,7.17
2019-03-15T18:43:39.087Z,7.90
2019-03-15T18:48:42.830Z,8.33
2019-03-15T18:53:46.678Z,8.20
2019-03-15T18:58:50.380Z,8.17
2019-03-15T19:03:54.133Z,8.07
2019-03-15T19:08:58.091Z,7.13
2019-03-15T19:14:01.965Z,7.67
2019-03-15T19:19:05.799Z,6.57
2019-03-15T19:24:09.511Z,6.60
2019-03-15T19:29:13.204Z,5.70
2019-03-15T19:34:16.999Z,5.20
2019-03-15T19:39:21.137Z,5.30
2019-03-15T19:44:25.450Z,4.90
2019-03-15T19:49:29.302Z,4.80
2019-03-15T19:55:00.557Z,5.30
2019-03-15T20:00:07.790Z,4.20
2019-03-15T20:05:03.749Z,4.67
2019-03-15T20:10:08.718Z,5.20
2019-03-15T20:15:12.860Z,5.77
2019-03-15T20:20:16.704Z,5.90
2019-03-15T20:25:20.787Z,6.43
2019-03-15T20:30:26.532Z,5.90
2019-03-15T20:35:30.041Z,6.17
2019-03-15T20:40:34.073Z,6.40
2019-03-15T20:45:37.960Z,6.00
2019-03-15T20:50:47.101Z,6.43
2019-03-15T20:55:47.528Z,7.20
2019-03-15T21:00:51.521Z,6.77
2019-03-15T21:05:55.541Z,7.03
2019-03-15T21:10:59.342Z,6.63
2019-03-15T21:16:03.126Z,7.00
2019-03-15T21:21:07.007Z,6.47
2019-03-15T21:26:11.155Z,6.20
2019-03-15T21:31:14.999Z,7.50
2019-03-15T21:36:18.808Z,8.00
2019-03-15T21:41:22.622Z,7.60
2019-03-15T21:46:26.505Z,7.40
2019-03-15T21:51:30.459Z,8.63
2019-03-15T21:56:34.262Z,8.20
2019-03-15T22:01:38.137Z,8.40
2019-03-15T22:06:41.930Z,10.27
2019-03-15T22:11:45.837Z,8.87
2019-03-15T22:16:49.562Z,10.40
2019-03-15T22:21:53.240Z,8.77
2019-03-15T22:26:57.321Z,8.43
2019-03-15T22:32:01.314Z,8.17
2019-03-15T22:37:05.103Z,7.10
2019-03-15T22:42:08.926Z,7.97
2019-03-15T22:47:14.674Z,7.20
2019-03-15T22:52:18.570Z,6.20
2019-03-15T22:57:22.277Z,5.83
2019-03-15T23:02:26.129Z,6.40
2019-03-15T23:07:29.928Z,5.57
2019-03-15T23:12:33.722Z,4.83
2019-03-15T23:17:37.562Z,5.83
2019-03-15T23:22:41.314Z,4.77
2019-03-15T23:27:45.434Z,5.13
2019-03-15T23:32:49.152Z,4.67
2019-03-15T23:37:52.906Z,4.13
2019-03-15T23:42:56.670Z,3.93
2019-03-15T23:48:00.473Z,4.33
2019-03-15T23:53:04.510Z,4.33
2019-03-15T23:58:08.427Z,4.20
